createdAt,value
2019-03-05T00:00:00.914Z,5.4
2019-03-05T00:10:00.610Z,5.4
2019-03-05T00:20:00.542Z,5.4
2019-03-05T00:30:00.734Z,5.1
2019-03-05T00:40:00.555Z,4.9
2019-03-05T00:50:00.537Z,5.2
2019-03-05T01:00:00.688Z,5.5
2019-03-05T01:10:00.578Z,5.9
2019-03-05T01:20:00.575Z,5.6
2019-03-05T01:30:00.716Z,4.9
2019-03-05T01:40:00.532Z,4.6
2019-03-05T01:50:00.552Z,4.4
2019-03-05T02:00:00.678Z,4.1
2019-03-05T02:10:00.624Z,4
2019-03-05T02:20:00.457Z,4
2019-03-05T02:30:00.794Z,3.9
2019-03-05T02:40:00.601Z,3.9
2019-03-05T02:50:00.662Z,3.9
2019-03-05T03:00:00.700Z,3.9
2019-03-05T03:10:00.559Z,3.9
2019-03-05T03:20:00.673Z,3.9
2019-03-05T03:30:00.765Z,3.9
2019-03-05T03:40:00.561Z,3.7
2019-03-05T03:50:00.585Z,3.7
2019-03-05T04:00:00.669Z,3.7
2019-03-05T04:10:00.587Z,3.9
2019-03-05T04:20:00.685Z,4.1
2019-03-05T04:30:01.383Z,4.1
2019-03-05T04:40:03.032Z,4.2
2019-03-05T04:50:00.484Z,4.4
2019-03-05T05:00:00.620Z,4.4
2019-03-05T05:10:00.550Z,4.5
2019-03-05T05:20:00.523Z,4.6
2019-03-05T05:30:00.730Z,4.9
2019-03-05T05:40:00.556Z,4
2019-03-05T05:50:00.641Z,3.7
2019-03-05T06:00:00.940Z,3.6
2019-03-05T06:10:00.576Z,3.7
2019-03-05T06:20:00.584Z,4.1
2019-03-05T06:30:00.733Z,4.6
2019-03-05T06:40:00.732Z,5.1
2019-03-05T06:50:00.595Z,5.2
2019-03-05T07:00:00.916Z,5
2019-03-05T07:10:00.625Z,6.1
2019-03-05T07:20:00.640Z,6.7
2019-03-05T07:30:00.747Z,7
2019-03-05T07:40:00.689Z,10.9
2019-03-05T07:50:00.667Z,9.6
2019-03-05T08:00:01.087Z,10.9
2019-03-05T08:10:00.711Z,10
2019-03-05T08:20:00.637Z,9.8
2019-03-05T08:30:00.743Z,9
2019-03-05T08:40:00.567Z,8.9
2019-03-05T08:50:00.635Z,9.5
2019-03-05T09:00:00.874Z,9.8
2019-03-05T09:10:00.591Z,11.8
2019-03-05T09:20:00.689Z,7.5
2019-03-05T09:30:00.640Z,5.5
2019-03-05T09:40:00.609Z,5
2019-03-05T09:50:00.561Z,5.2
2019-03-05T10:00:00.775Z,7.9
2019-03-05T10:10:00.640Z,9.5
2019-03-05T10:20:00.642Z,11.1
2019-03-05T10:30:00.720Z,21
2019-03-05T10:40:00.601Z,23.7
2019-03-05T10:50:00.563Z,18.6
2019-03-05T11:00:00.847Z,12.6
2019-03-05T11:10:00.573Z,12.8
2019-03-05T11:20:00.622Z,18.1
2019-03-05T11:30:00.806Z,26.2
2019-03-05T11:40:00.677Z,23.1
2019-03-05T11:50:00.644Z,14.4
2019-03-05T12:00:00.909Z,12.6
2019-03-05T12:10:00.587Z,16.9
2019-03-05T12:20:00.599Z,16.8
2019-03-05T12:30:01.448Z,18.4
2019-03-05T12:40:00.670Z,18.3
2019-03-05T12:50:00.678Z,20.9
2019-03-05T13:00:00.799Z,14.5
2019-03-05T13:10:02.206Z,13.4
2019-03-05T13:20:00.684Z,12.1
2019-03-05T13:30:01.052Z,11.4
2019-03-05T13:40:00.711Z,8.5
2019-03-05T13:50:04.265Z,9
2019-03-05T14:00:01.028Z,15.4
2019-03-05T14:10:00.645Z,16.5
2019-03-05T14:20:00.748Z,11
2019-03-05T14:30:02.678Z,10.4
2019-03-05T14:40:18.991Z,9.4
2019-03-05T14:50:00.598Z,14.1
2019-03-05T15:00:00.983Z,13.9
2019-03-05T15:10:00.623Z,18.5
2019-03-05T15:20:00.562Z,15.8
2019-03-05T15:30:00.999Z,15
2019-03-05T15:40:00.700Z,17.4
2019-03-05T15:50:00.636Z,14
2019-03-05T16:00:00.875Z,13.1
2019-03-05T16:10:00.631Z,12.5
2019-03-05T16:20:00.669Z,8.9
2019-03-05T16:30:00.718Z,10.9
2019-03-05T16:40:01.070Z,9.5
2019-03-05T16:50:00.626Z,7.5
2019-03-05T17:00:01.308Z,6.9
2019-03-05T17:10:00.683Z,6.5
2019-03-05T17:20:00.545Z,6
2019-03-05T17:30:00.637Z,5.7
2019-03-05T17:40:00.565Z,5.5
2019-03-05T17:50:00.620Z,5.1
2019-03-05T18:00:00.639Z,5.2
2019-03-05T18:10:01.843Z,5.4
2019-03-05T18:20:00.636Z,5
2019-03-05T18:30:00.587Z,4.7
2019-03-05T18:40:00.493Z,4.5
2019-03-05T18:50:00.546Z,4.2
2019-03-05T19:00:00.576Z,4.1
2019-03-05T19:10:00.311Z,4.1
2019-03-05T19:20:00.541Z,4
2019-03-05T19:30:01.013Z,3.7
2019-03-05T19:40:00.536Z,3.9
2019-03-05T19:50:00.594Z,3.7
2019-03-05T20:00:00.725Z,3.6
2019-03-05T20:10:00.353Z,3.9
2019-03-05T20:20:00.576Z,3.9
2019-03-05T20:30:00.744Z,3.9
2019-03-05T20:40:02.609Z,3.9
2019-03-05T20:50:00.591Z,3.6
2019-03-05T21:00:00.667Z,3.6
2019-03-05T21:10:00.658Z,3.7
2019-03-05T21:20:00.502Z,4
2019-03-05T21:30:00.546Z,4
2019-03-05T21:40:01.092Z,4
2019-03-05T21:50:00.462Z,3.9
2019-03-05T22:00:00.622Z,3.9
2019-03-05T22:10:00.495Z,3.9
2019-03-05T22:20:00.526Z,4
2019-03-05T22:30:00.711Z,4
2019-03-05T22:40:00.562Z,4
2019-03-05T22:50:00.528Z,4
2019-03-05T23:00:02.452Z,4
2019-03-05T23:10:00.536Z,4.1
2019-03-05T23:20:00.578Z,4
2019-03-05T23:30:00.725Z,4
2019-03-05T23:40:00.537Z,4
2019-03-05T23:50:00.629Z,3.9
